sensor_id;sensor_type;location;lat;lon;timestamp;pressure;altitude;pressure_sealevel;temperature;humidity
61128;BME280;47013;42.664;23.242;2023-05-19T00:00:42;94259.97;;;10.50;100.00
61128;BME280;47013;42.664;23.242;2023-05-19T00:03:10;94257.38;;;10.32;100.00
61128;BME280;47013;42.664;23.242;2023-05-19T00:05:37;94262.81;;;10.25;100.00
61128;BME280;47013;42.664;23.242;2023-05-19T00:08:04;94258.88;;;10.40;100.00
61128;BME280;47013;42.664;23.242;2023-05-19T00:10:32;94254.94;;;10.55;100.00
61128;BME280;47013;42.664;23.242;2023-05-19T00:12:58;94251.78;;;10.60;100.00
61128;BME280;47013;42.664;23.242;2023-05-19T00:15:23;94256.75;;;10.73;100.00
61128;BME280;47013;42.664;23.242;2023-05-19T00:17:48;94255.22;;;10.68;100.00
61128;BME280;47013;42.664;23.242;2023-05-19T00:20:14;94258.63;;;10.79;100.00
61128;BME280;47013;42.664;23.242;2023-05-19T00:22:39;94253.19;;;10.79;100.00
61128;BME280;47013;42.664;23.242;2023-05-19T00:25:08;94253.13;;;10.90;100.00
61128;BME280;47013;42.664;23.242;2023-05-19T00:27:33;94255.38;;;10.99;100.00
61128;BME280;47013;42.664;23.242;2023-05-19T00:29:58;94247.31;;;10.88;100.00
61128;BME280;47013;42.664;23.242;2023-05-19T00:32:24;94240.28;;;10.98;100.00
61128;BME280;47013;42.664;23.242;2023-05-19T00:34:49;94246.03;;;11.07;100.00
61128;BME280;47013;42.664;23.242;2023-05-19T00:37:14;94240.56;;;11.10;100.00
61128;BME280;47013;42.664;23.242;2023-05-19T00:39:39;94249.13;;;11.05;100.00
61128;BME280;47013;42.664;23.242;2023-05-19T00:42:05;94244.91;;;11.01;100.00
61128;BME280;47013;42.664;23.242;2023-05-19T00:44:30;94240.97;;;11.09;100.00
61128;BME280;47013;42.664;23.242;2023-05-19T00:46:56;94244.78;;;11.15;100.00
61128;BME280;47013;42.664;23.242;2023-05-19T00:49:21;94242.84;;;11.15;100.00
61128;BME280;47013;42.664;23.242;2023-05-19T00:51:46;94239.72;;;11.17;100.00
61128;BME280;47013;42.664;23.242;2023-05-19T00:54:12;94237.75;;;11.21;100.00
61128;BME280;47013;42.664;23.242;2023-05-19T00:56:37;94229.59;;;11.25;100.00
61128;BME280;47013;42.664;23.242;2023-05-19T00:59:03;94231.84;;;11.30;100.00
61128;BME280;47013;42.664;23.242;2023-05-19T01:01:28;94231.50;;;11.28;100.00
61128;BME280;47013;42.664;23.242;2023-05-19T01:03:54;94231.44;;;11.31;100.00
61128;BME280;47013;42.664;23.242;2023-05-19T01:06:23;94232.03;;;11.12;100.00
61128;BME280;47013;42.664;23.242;2023-05-19T01:08:49;94243.22;;;11.17;100.00
61128;BME280;47013;42.664;23.242;2023-05-19T01:11:15;94243.97;;;11.18;100.00
61128;BME280;47013;42.664;23.242;2023-05-19T01:13:40;94244.38;;;11.16;100.00
61128;BME280;47013;42.664;23.242;2023-05-19T01:16:10;94239.41;;;11.11;100.00
61128;BME280;47013;42.664;23.242;2023-05-19T01:21:13;94241.16;;;10.84;100.00
61128;BME280;47013;42.664;23.242;2023-05-19T01:29:25;94238.81;;;10.86;100.00
61128;BME280;47013;42.664;23.242;2023-05-19T01:31:52;94241.16;;;10.80;100.00
61128;BME280;47013;42.664;23.242;2023-05-19T01:34:22;94234.63;;;10.78;100.00
61128;BME280;47013;42.664;23.242;2023-05-19T01:36:47;94241.22;;;10.77;100.00
61128;BME280;47013;42.664;23.242;2023-05-19T01:39:13;94238.13;;;10.75;100.00
61128;BME280;47013;42.664;23.242;2023-05-19T01:41:40;94234.28;;;10.72;100.00
61128;BME280;47013;42.664;23.242;2023-05-19T01:44:06;94237.03;;;10.69;100.00
61128;BME280;47013;42.664;23.242;2023-05-19T01:46:32;94239.38;;;10.63;100.00
61128;BME280;47013;42.664;23.242;2023-05-19T01:48:57;94239.81;;;10.58;100.00
61128;BME280;47013;42.664;23.242;2023-05-19T01:51:23;94247.16;;;10.57;100.00
61128;BME280;47013;42.664;23.242;2023-05-19T01:53:48;94254.94;;;10.55;100.00
61128;BME280;47013;42.664;23.242;2023-05-19T01:56:15;94248.75;;;10.51;100.00
61128;BME280;47013;42.664;23.242;2023-05-19T01:58:55;94247.19;;;10.50;100.00
61128;BME280;47013;42.664;23.242;2023-05-19T02:01:33;94248.41;;;10.46;100.00
61128;BME280;47013;42.664;23.242;2023-05-19T02:09:12;94246.59;;;10.21;100.00
61128;BME280;47013;42.664;23.242;2023-05-19T02:11:51;94247.72;;;10.27;100.00
61128;BME280;47013;42.664;23.242;2023-05-19T02:14:19;94248.09;;;10.33;100.00
61128;BME280;47013;42.664;23.242;2023-05-19T02:16:46;94245.75;;;10.35;100.00
61128;BME280;47013;42.664;23.242;2023-05-19T02:21:46;94253.84;;;10.39;100.00
61128;BME280;47013;42.664;23.242;2023-05-19T02:24:11;94260.03;;;10.43;100.00
61128;BME280;47013;42.664;23.242;2023-05-19T02:26:36;94262.72;;;10.46;100.00
61128;BME280;47013;42.664;23.242;2023-05-19T02:29:02;94255.34;;;10.47;100.00
61128;BME280;47013;42.664;23.242;2023-05-19T02:31:27;94258.47;;;10.45;100.00
61128;BME280;47013;42.664;23.242;2023-05-19T02:33:52;94252.66;;;10.47;100.00
61128;BME280;47013;42.664;23.242;2023-05-19T02:36:17;94257.66;;;10.48;100.00
61128;BME280;47013;42.664;23.242;2023-05-19T02:38:43;94247.59;;;10.49;100.00
61128;BME280;47013;42.664;23.242;2023-05-19T02:41:08;94259.59;;;10.48;100.00
61128;BME280;47013;42.664;23.242;2023-05-19T02:43:33;94263.88;;;10.49;100.00
61128;BME280;47013;42.664;23.242;2023-05-19T02:45:58;94258.06;;;10.47;100.00
61128;BME280;47013;42.664;23.242;2023-05-19T02:48:24;94261.91;;;10.49;100.00
61128;BME280;47013;42.664;23.242;2023-05-19T02:50:49;94260.75;;;10.50;100.00
61128;BME280;47013;42.664;23.242;2023-05-19T02:53:14;94263.47;;;10.50;100.00
61128;BME280;47013;42.664;23.242;2023-05-19T02:55:40;94266.19;;;10.50;100.00
61128;BME280;47013;42.664;23.242;2023-05-19T02:58:06;94266.56;;;10.49;100.00
61128;BME280;47013;42.664;23.242;2023-05-19T03:00:31;94262.72;;;10.46;100.00
61128;BME280;47013;42.664;23.242;2023-05-19T03:02:56;94264.25;;;10.47;100.00
61128;BME280;47013;42.664;23.242;2023-05-19T03:05:26;94269.31;;;10.45;100.00
61128;BME280;47013;42.664;23.242;2023-05-19T03:07:51;94274.75;;;10.38;100.00
61128;BME280;47013;42.664;23.242;2023-05-19T03:10:16;94265.84;;;10.45;100.00
61128;BME280;47013;42.664;23.242;2023-05-19T03:12:42;94275.47;;;10.49;100.00
61128;BME280;47013;42.664;23.242;2023-05-19T03:15:07;94265.81;;;10.48;100.00
61128;BME280;47013;42.664;23.242;2023-05-19T03:17:32;94273.91;;;10.52;100.00
61128;BME280;47013;42.664;23.242;2023-05-19T03:19:58;94273.91;;;10.52;100.00
61128;BME280;47013;42.664;23.242;2023-05-19T03:22:23;94272.38;;;10.51;100.00
61128;BME280;47013;42.664;23.242;2023-05-19T03:24:49;94275.44;;;10.53;100.00
61128;BME280;47013;42.664;23.242;2023-05-19T03:27:15;94273.91;;;10.55;100.00
61128;BME280;47013;42.664;23.242;2023-05-19T03:29:40;94275.44;;;10.56;100.00
61128;BME280;47013;42.664;23.242;2023-05-19T03:32:06;94277.00;;;10.57;100.00
61128;BME280;47013;42.664;23.242;2023-05-19T03:34:31;94276.59;;;10.59;100.00
61128;BME280;47013;42.664;23.242;2023-05-19T03:36:57;94278.13;;;10.60;100.00
61128;BME280;47013;42.664;23.242;2023-05-19T03:39:23;94277.72;;;10.61;100.00
61128;BME280;47013;42.664;23.242;2023-05-19T03:41:48;94287.47;;;10.55;100.00
61128;BME280;47013;42.664;23.242;2023-05-19T03:44:13;94272.75;;;10.56;100.00
61128;BME280;47013;42.664;23.242;2023-05-19T03:46:39;94273.91;;;10.52;100.00
61128;BME280;47013;42.664;23.242;2023-05-19T03:49:04;94270.41;;;10.58;100.00
61128;BME280;47013;42.664;23.242;2023-05-19T03:51:29;94270.06;;;10.49;100.00
61128;BME280;47013;42.664;23.242;2023-05-19T03:53:54;94271.16;;;10.59;100.00
61128;BME280;47013;42.664;23.242;2023-05-19T03:56:20;94270.34;;;10.66;100.00
61128;BME280;47013;42.664;23.242;2023-05-19T03:58:49;94275.03;;;10.58;100.00
61128;BME280;47013;42.664;23.242;2023-05-19T04:01:14;94280.56;;;10.40;100.00
61128;BME280;47013;42.664;23.242;2023-05-19T04:03:39;94276.28;;;10.46;100.00
61128;BME280;47013;42.664;23.242;2023-05-19T04:06:05;94275.03;;;10.58;100.00
61128;BME280;47013;42.664;23.242;2023-05-19T04:08:30;94276.13;;;10.68;100.00
61128;BME280;47013;42.664;23.242;2023-05-19T04:10:56;94274.13;;;10.79;100.00
61128;BME280;47013;42.664;23.242;2023-05-19T04:13:21;94278.81;;;10.75;100.00
61128;BME280;47013;42.664;23.242;2023-05-19T04:15:46;94280.66;;;10.88;100.00
61128;BME280;47013;42.664;23.242;2023-05-19T04:18:12;94282.88;;;11.01;100.00
61128;BME280;47013;42.664;23.242;2023-05-19T04:20:37;94285.56;;;11.04;100.00
61128;BME280;47013;42.664;23.242;2023-05-19T04:23:02;94280.47;;;11.13;100.00
61128;BME280;47013;42.664;23.242;2023-05-19T04:25:28;94281.97;;;11.21;100.00
61128;BME280;47013;42.664;23.242;2023-05-19T04:27:53;94287.34;;;11.25;100.00
61128;BME280;47013;42.664;23.242;2023-05-19T04:30:21;94294.63;;;11.35;100.00
61128;BME280;47013;42.664;23.242;2023-05-19T04:32:47;94298.91;;;11.36;100.00
61128;BME280;47013;42.664;23.242;2023-05-19T04:35:14;94297.69;;;11.41;100.00
61128;BME280;47013;42.664;23.242;2023-05-19T04:37:41;94303.56;;;11.32;100.00
61128;BME280;47013;42.664;23.242;2023-05-19T04:40:09;94300.88;;;11.29;100.00
61128;BME280;47013;42.664;23.242;2023-05-19T04:42:35;94299.78;;;11.22;100.00
61128;BME280;47013;42.664;23.242;2023-05-19T04:45:00;94302.00;;;11.35;100.00
61128;BME280;47013;42.664;23.242;2023-05-19T04:47:27;94308.63;;;11.30;100.00
61128;BME280;47013;42.664;23.242;2023-05-19T04:49:53;94310.94;;;11.32;100.00
61128;BME280;47013;42.664;23.242;2023-05-19T04:52:19;94312.41;;;11.43;100.00
61128;BME280;47013;42.664;23.242;2023-05-19T04:54:45;94301.84;;;11.52;100.00
61128;BME280;47013;42.664;23.242;2023-05-19T04:57:11;94309.53;;;11.61;100.00
61128;BME280;47013;42.664;23.242;2023-05-19T04:59:36;94308.31;;;11.66;100.00
61128;BME280;47013;42.664;23.242;2023-05-19T05:02:01;94303.19;;;11.75;100.00
61128;BME280;47013;42.664;23.242;2023-05-19T05:04:26;94301.59;;;11.77;100.00
61128;BME280;47013;42.664;23.242;2023-05-19T05:06:52;94306.97;;;11.85;100.00
61128;BME280;47013;42.664;23.242;2023-05-19T05:09:17;94316.63;;;11.93;100.00
61128;BME280;47013;42.664;23.242;2023-05-19T05:11:43;94308.00;;;11.98;100.00
61128;BME280;47013;42.664;23.242;2023-05-19T05:14:09;94312.25;;;12.02;100.00
61128;BME280;47013;42.664;23.242;2023-05-19T05:16:35;94310.53;;;12.16;100.00
61128;BME280;47013;42.664;23.242;2023-05-19T05:19:00;94306.94;;;12.26;100.00
61128;BME280;47013;42.664;23.242;2023-05-19T05:21:26;94309.50;;;12.40;100.00
61128;BME280;47013;42.664;23.242;2023-05-19T05:23:52;94308.19;;;12.52;100.00
61128;BME280;47013;42.664;23.242;2023-05-19T05:26:17;94311.91;;;12.61;99.33
61128;BME280;47013;42.664;23.242;2023-05-19T05:28:43;94302.03;;;12.75;99.41
61128;BME280;47013;42.664;23.242;2023-05-19T05:31:08;94298.94;;;12.99;100.00
61128;BME280;47013;42.664;23.242;2023-05-19T05:33:34;94306.31;;;13.03;97.21
61128;BME280;47013;42.664;23.242;2023-05-19T05:35:59;94312.34;;;13.14;95.39
61128;BME280;47013;42.664;23.242;2023-05-19T05:38:24;94310.31;;;13.21;94.29
61128;BME280;47013;42.664;23.242;2023-05-19T05:40:50;94308.31;;;13.25;95.39
61128;BME280;47013;42.664;23.242;2023-05-19T05:43:15;94314.78;;;13.35;95.64
61128;BME280;47013;42.664;23.242;2023-05-19T05:45:40;94312.72;;;13.43;93.51
61128;BME280;47013;42.664;23.242;2023-05-19T05:48:05;94309.03;;;13.53;91.15
61128;BME280;47013;42.664;23.242;2023-05-19T05:50:31;94313.53;;;13.63;91.21
61128;BME280;47013;42.664;23.242;2023-05-19T05:52:56;94309.09;;;13.73;91.90
61128;BME280;47013;42.664;23.242;2023-05-19T05:55:25;94315.47;;;13.86;90.30
61128;BME280;47013;42.664;23.242;2023-05-19T05:57:50;94319.13;;;13.99;88.96
61128;BME280;47013;42.664;23.242;2023-05-19T06:00:16;94317.81;;;14.07;87.49
61128;BME280;47013;42.664;23.242;2023-05-19T06:02:45;94321.94;;;14.15;86.14
61128;BME280;47013;42.664;23.242;2023-05-19T06:05:11;94326.16;;;14.20;85.51
61128;BME280;47013;42.664;23.242;2023-05-19T06:07:39;94336.91;;;14.27;88.68
61128;BME280;47013;42.664;23.242;2023-05-19T06:10:06;94338.25;;;14.39;86.05
61128;BME280;47013;42.664;23.242;2023-05-19T06:12:32;94332.09;;;14.55;85.13
61128;BME280;47013;42.664;23.242;2023-05-19T06:14:58;94333.22;;;14.57;84.65
61128;BME280;47013;42.664;23.242;2023-05-19T06:17:23;94333.16;;;14.61;85.57
61128;BME280;47013;42.664;23.242;2023-05-19T06:19:49;94325.66;;;14.65;85.08
61128;BME280;47013;42.664;23.242;2023-05-19T06:22:14;94330.44;;;14.61;83.25
61128;BME280;47013;42.664;23.242;2023-05-19T06:24:39;94331.59;;;14.80;89.03
61128;BME280;47013;42.664;23.242;2023-05-19T06:27:05;94331.06;;;15.04;86.94
61128;BME280;47013;42.664;23.242;2023-05-19T06:29:30;94333.63;;;15.12;81.76
61128;BME280;47013;42.664;23.242;2023-05-19T06:31:55;94339.25;;;15.21;79.73
61128;BME280;47013;42.664;23.242;2023-05-19T06:34:20;94333.91;;;15.33;78.62
61128;BME280;47013;42.664;23.242;2023-05-19T06:36:45;94337.25;;;15.41;79.93
61128;BME280;47013;42.664;23.242;2023-05-19T06:39:11;94334.00;;;15.46;78.34
61128;BME280;47013;42.664;23.242;2023-05-19T06:41:36;94341.44;;;15.46;79.56
61128;BME280;47013;42.664;23.242;2023-05-19T06:44:02;94327.66;;;15.49;84.02
61128;BME280;47013;42.664;23.242;2023-05-19T06:46:28;94336.78;;;15.62;80.40
61128;BME280;47013;42.664;23.242;2023-05-19T06:48:53;94332.91;;;15.76;79.22
61128;BME280;47013;42.664;23.242;2023-05-19T06:51:18;94337.63;;;15.76;80.18
61128;BME280;47013;42.664;23.242;2023-05-19T06:53:46;94340.16;;;15.83;78.26
61128;BME280;47013;42.664;23.242;2023-05-19T06:56:11;94341.03;;;15.80;77.68
61128;BME280;47013;42.664;23.242;2023-05-19T06:58:36;94346.31;;;15.87;74.53
61128;BME280;47013;42.664;23.242;2023-05-19T07:01:03;94337.44;;;15.83;80.38
61128;BME280;47013;42.664;23.242;2023-05-19T07:03:28;94353.16;;;15.79;75.31
61128;BME280;47013;42.664;23.242;2023-05-19T07:05:54;94347.13;;;16.00;76.00
61128;BME280;47013;42.664;23.242;2023-05-19T07:08:20;94355.94;;;16.08;75.69
61128;BME280;47013;42.664;23.242;2023-05-19T07:10:45;94351.72;;;16.19;75.65
61128;BME280;47013;42.664;23.242;2023-05-19T07:13:11;94359.94;;;16.19;75.58
61128;BME280;47013;42.664;23.242;2023-05-19T07:15:36;94354.75;;;16.38;75.36
61128;BME280;47013;42.664;23.242;2023-05-19T07:18:01;94356.97;;;16.43;73.07
61128;BME280;47013;42.664;23.242;2023-05-19T07:20:27;94366.09;;;16.52;74.56
61128;BME280;47013;42.664;23.242;2023-05-19T07:22:52;94361.53;;;16.62;73.10
61128;BME280;47013;42.664;23.242;2023-05-19T07:25:17;94368.16;;;16.48;72.73
61128;BME280;47013;42.664;23.242;2023-05-19T07:27:43;94367.88;;;16.30;74.35
61128;BME280;47013;42.664;23.242;2023-05-19T07:30:09;94373.53;;;16.52;74.08
61128;BME280;47013;42.664;23.242;2023-05-19T07:32:35;94363.56;;;16.74;74.40
61128;BME280;47013;42.664;23.242;2023-05-19T07:35:00;94360.31;;;17.05;72.86
61128;BME280;47013;42.664;23.242;2023-05-19T07:37:25;94368.56;;;17.18;70.42
61128;BME280;47013;42.664;23.242;2023-05-19T07:39:50;94367.03;;;17.17;68.44
61128;BME280;47013;42.664;23.242;2023-05-19T07:42:16;94361.19;;;17.02;70.27
61128;BME280;47013;42.664;23.242;2023-05-19T07:44:41;94361.91;;;16.77;71.61
61128;BME280;47013;42.664;23.242;2023-05-19T07:47:06;94362.13;;;16.70;72.96
61128;BME280;47013;42.664;23.242;2023-05-19T07:49:31;94364.44;;;16.71;73.73
61128;BME280;47013;42.664;23.242;2023-05-19T07:51:57;94361.41;;;16.82;70.93
61128;BME280;47013;42.664;23.242;2023-05-19T07:54:22;94367.84;;;16.88;71.29
61128;BME280;47013;42.664;23.242;2023-05-19T07:56:47;94361.19;;;17.02;70.93
61128;BME280;47013;42.664;23.242;2023-05-19T07:59:13;94359.19;;;16.90;70.70
61128;BME280;47013;42.664;23.242;2023-05-19T08:01:39;94364.41;;;17.13;72.74
61128;BME280;47013;42.664;23.242;2023-05-19T08:04:04;94359.13;;;17.31;70.17
61128;BME280;47013;42.664;23.242;2023-05-19T08:06:29;94362.56;;;17.48;70.51
61128;BME280;47013;42.664;23.242;2023-05-19T08:08:55;94356.28;;;17.60;69.65
61128;BME280;47013;42.664;23.242;2023-05-19T08:11:21;94360.91;;;17.51;69.74
61128;BME280;47013;42.664;23.242;2023-05-19T08:13:46;94364.84;;;17.50;68.94
61128;BME280;47013;42.664;23.242;2023-05-19T08:16:13;94367.34;;;17.57;69.69
61128;BME280;47013;42.664;23.242;2023-05-19T08:18:38;94357.94;;;17.71;69.68
61128;BME280;47013;42.664;23.242;2023-05-19T08:21:03;94356.16;;;17.89;69.13
61128;BME280;47013;42.664;23.242;2023-05-19T08:23:29;94352.19;;;18.03;68.49
61128;BME280;47013;42.664;23.242;2023-05-19T08:25:54;94354.44;;;18.17;68.26
61128;BME280;47013;42.664;23.242;2023-05-19T08:28:19;94347.91;;;18.37;65.69
61128;BME280;47013;42.664;23.242;2023-05-19T08:30:44;94354.19;;;18.37;65.25
61128;BME280;47013;42.664;23.242;2023-05-19T08:33:10;94354.81;;;18.07;65.48
61128;BME280;47013;42.664;23.242;2023-05-19T08:35:35;94348.81;;;18.21;69.04
61128;BME280;47013;42.664;23.242;2023-05-19T08:38:00;94341.44;;;18.31;67.05
61128;BME280;47013;42.664;23.242;2023-05-19T08:40:26;94340.88;;;18.36;64.99
61128;BME280;47013;42.664;23.242;2023-05-19T08:42:53;94340.75;;;18.61;66.60
61128;BME280;47013;42.664;23.242;2023-05-19T08:45:18;94342.00;;;18.82;64.05
61128;BME280;47013;42.664;23.242;2023-05-19T08:47:46;94345.56;;;18.92;64.29
61128;BME280;47013;42.664;23.242;2023-05-19T08:50:14;94346.13;;;19.08;63.87
61128;BME280;47013;42.664;23.242;2023-05-19T08:52:51;94343.81;;;19.07;63.62
61128;BME280;47013;42.664;23.242;2023-05-19T08:55:28;94352.91;;;19.26;63.09
61128;BME280;47013;42.664;23.242;2023-05-19T08:57:57;94347.41;;;19.26;60.69
61128;BME280;47013;42.664;23.242;2023-05-19T09:00:23;94345.44;;;19.26;62.98
61128;BME280;47013;42.664;23.242;2023-05-19T09:02:49;94344.88;;;19.31;61.71
61128;BME280;47013;42.664;23.242;2023-05-19T09:05:16;94345.22;;;19.42;62.35
61128;BME280;47013;42.664;23.242;2023-05-19T09:07:42;94345.91;;;19.65;57.75
61128;BME280;47013;42.664;23.242;2023-05-19T09:10:07;94337.13;;;19.88;59.32
61128;BME280;47013;42.664;23.242;2023-05-19T09:12:33;94329.06;;;19.94;58.55
61128;BME280;47013;42.664;23.242;2023-05-19T09:14:58;94331.69;;;20.25;59.22
61128;BME280;47013;42.664;23.242;2023-05-19T09:17:23;94328.66;;;20.59;58.79
61128;BME280;47013;42.664;23.242;2023-05-19T09:19:49;94327.44;;;20.60;57.15
61128;BME280;47013;42.664;23.242;2023-05-19T09:22:15;94334.00;;;20.72;56.89
61128;BME280;47013;42.664;23.242;2023-05-19T09:24:43;94328.16;;;20.79;56.27
61128;BME280;47013;42.664;23.242;2023-05-19T09:27:08;94324.28;;;20.95;55.32
61128;BME280;47013;42.664;23.242;2023-05-19T09:29:33;94321.22;;;21.11;56.35
61128;BME280;47013;42.664;23.242;2023-05-19T09:31:59;94318.72;;;21.23;54.70
61128;BME280;47013;42.664;23.242;2023-05-19T09:34:25;94328.50;;;21.33;52.98
61128;BME280;47013;42.664;23.242;2023-05-19T09:36:51;94317.31;;;21.36;50.79
61128;BME280;47013;42.664;23.242;2023-05-19T09:39:23;94328.78;;;21.35;51.76
61128;BME280;47013;42.664;23.242;2023-05-19T09:41:50;94324.47;;;21.43;51.10
61128;BME280;47013;42.664;23.242;2023-05-19T09:47:00;94319.13;;;21.48;51.91
61128;BME280;47013;42.664;23.242;2023-05-19T09:49:28;94325.31;;;21.16;50.17
61128;BME280;47013;42.664;23.242;2023-05-19T09:51:57;94327.13;;;21.19;51.53
61128;BME280;47013;42.664;23.242;2023-05-19T09:54:23;94320.41;;;21.29;51.67
61128;BME280;47013;42.664;23.242;2023-05-19T09:56:58;94313.16;;;21.41;52.95
61128;BME280;47013;42.664;23.242;2023-05-19T09:59:24;94312.31;;;21.26;50.89
61128;BME280;47013;42.664;23.242;2023-05-19T10:01:54;94319.63;;;21.38;53.44
61128;BME280;47013;42.664;23.242;2023-05-19T10:04:21;94318.50;;;21.77;53.48
61128;BME280;47013;42.664;23.242;2023-05-19T10:06:46;94312.00;;;21.90;50.00
61128;BME280;47013;42.664;23.242;2023-05-19T10:09:17;94312.88;;;21.96;52.60
61128;BME280;47013;42.664;23.242;2023-05-19T10:11:44;94310.13;;;22.20;49.34
61128;BME280;47013;42.664;23.242;2023-05-19T10:14:09;94297.63;;;22.10;45.95
61128;BME280;47013;42.664;23.242;2023-05-19T10:16:35;94299.53;;;21.94;47.30
61128;BME280;47013;42.664;23.242;2023-05-19T10:19:00;94309.00;;;22.02;45.45
61128;BME280;47013;42.664;23.242;2023-05-19T10:21:26;94302.84;;;22.07;47.50
61128;BME280;47013;42.664;23.242;2023-05-19T10:23:51;94298.41;;;22.25;46.87
61128;BME280;47013;42.664;23.242;2023-05-19T10:26:17;94292.03;;;22.57;45.82
61128;BME280;47013;42.664;23.242;2023-05-19T10:28:43;94290.72;;;22.82;45.76
61128;BME280;47013;42.664;23.242;2023-05-19T10:31:10;94290.22;;;22.69;43.87
61128;BME280;47013;42.664;23.242;2023-05-19T10:38:44;94288.34;;;22.90;45.61
61128;BME280;47013;42.664;23.242;2023-05-19T10:44:08;94283.69;;;22.96;42.71
61128;BME280;47013;42.664;23.242;2023-05-19T10:46:33;94277.28;;;23.19;45.81
61128;BME280;47013;42.664;23.242;2023-05-19T10:48:59;94278.63;;;23.09;41.85
61128;BME280;47013;42.664;23.242;2023-05-19T10:51:29;94276.16;;;22.97;44.09
61128;BME280;47013;42.664;23.242;2023-05-19T10:53:55;94273.09;;;22.80;42.12
61128;BME280;47013;42.664;23.242;2023-05-19T10:58:55;94261.94;;;22.21;43.35
61128;BME280;47013;42.664;23.242;2023-05-19T11:01:20;94264.91;;;22.32;44.09
61128;BME280;47013;42.664;23.242;2023-05-19T11:03:53;94265.28;;;22.01;43.09
61128;BME280;47013;42.664;23.242;2023-05-19T11:08:53;94269.94;;;21.95;42.17
61128;BME280;47013;42.664;23.242;2023-05-19T11:11:18;94260.47;;;22.11;43.04
61128;BME280;47013;42.664;23.242;2023-05-19T11:13:47;94260.25;;;22.38;41.13
61128;BME280;47013;42.664;23.242;2023-05-19T11:16:16;94267.94;;;21.95;40.73
61128;BME280;47013;42.664;23.242;2023-05-19T11:18:42;94257.41;;;21.85;42.37
61128;BME280;47013;42.664;23.242;2023-05-19T11:21:11;94268.47;;;22.08;42.40
61128;BME280;47013;42.664;23.242;2023-05-19T11:23:36;94259.47;;;22.37;44.20
61128;BME280;47013;42.664;23.242;2023-05-19T11:26:02;94256.94;;;22.78;41.02
61128;BME280;47013;42.664;23.242;2023-05-19T11:28:27;94257.44;;;22.91;39.10
61128;BME280;47013;42.664;23.242;2023-05-19T11:30:54;94260.69;;;22.90;40.64
61128;BME280;47013;42.664;23.242;2023-05-19T11:33:21;94252.41;;;22.90;40.35
61128;BME280;47013;42.664;23.242;2023-05-19T11:35:51;94250.97;;;22.80;40.13
61128;BME280;47013;42.664;23.242;2023-05-19T11:38:17;94252.09;;;22.58;40.88
61128;BME280;47013;42.664;23.242;2023-05-19T11:40:43;94246.38;;;21.85;41.12
61128;BME280;47013;42.664;23.242;2023-05-19T11:43:08;94250.78;;;21.67;42.20
61128;BME280;47013;42.664;23.242;2023-05-19T11:45:34;94246.06;;;21.59;42.93
61128;BME280;47013;42.664;23.242;2023-05-19T11:47:59;94244.38;;;21.61;45.22
61128;BME280;47013;42.664;23.242;2023-05-19T11:50:25;94252.47;;;21.41;43.70
61128;BME280;47013;42.664;23.242;2023-05-19T11:52:50;94259.91;;;21.26;45.12
61128;BME280;47013;42.664;23.242;2023-05-19T11:55:16;94257.63;;;21.15;45.86
61128;BME280;47013;42.664;23.242;2023-05-19T12:00:22;94276.47;;;20.47;45.12
61128;BME280;47013;42.664;23.242;2023-05-19T12:02:49;94295.41;;;20.17;46.96
61128;BME280;47013;42.664;23.242;2023-05-19T12:05:21;94301.19;;;19.73;49.23
61128;BME280;47013;42.664;23.242;2023-05-19T12:07:47;94303.16;;;19.33;60.36
61128;BME280;47013;42.664;23.242;2023-05-19T12:10:15;94299.50;;;18.74;63.56
61128;BME280;47013;42.664;23.242;2023-05-19T12:12:40;94300.63;;;17.98;66.76
61128;BME280;47013;42.664;23.242;2023-05-19T12:15:08;94307.72;;;17.61;65.51
61128;BME280;47013;42.664;23.242;2023-05-19T12:17:34;94316.06;;;17.19;61.50
61128;BME280;47013;42.664;23.242;2023-05-19T12:19:59;94308.56;;;16.40;68.31
61128;BME280;47013;42.664;23.242;2023-05-19T12:22:25;94317.34;;;15.89;68.36
61128;BME280;47013;42.664;23.242;2023-05-19T12:24:51;94320.09;;;15.73;70.19
61128;BME280;47013;42.664;23.242;2023-05-19T12:27:22;94313.66;;;15.47;70.48
61128;BME280;47013;42.664;23.242;2023-05-19T12:29:52;94316.75;;;15.49;72.21
61128;BME280;47013;42.664;23.242;2023-05-19T12:32:18;94314.00;;;15.17;76.00
61128;BME280;47013;42.664;23.242;2023-05-19T12:34:46;94313.41;;;14.73;77.36
61128;BME280;47013;42.664;23.242;2023-05-19T12:37:11;94304.84;;;14.71;76.12
61128;BME280;47013;42.664;23.242;2023-05-19T12:39:38;94308.91;;;14.83;77.82
61128;BME280;47013;42.664;23.242;2023-05-19T12:42:06;94308.84;;;14.86;74.92
61128;BME280;47013;42.664;23.242;2023-05-19T12:44:35;94300.91;;;14.92;80.40
61128;BME280;47013;42.664;23.242;2023-05-19T12:47:02;94293.34;;;14.99;73.72
61128;BME280;47013;42.664;23.242;2023-05-19T12:49:28;94294.88;;;15.17;78.10
61128;BME280;47013;42.664;23.242;2023-05-19T12:51:54;94284.63;;;15.21;75.28
61128;BME280;47013;42.664;23.242;2023-05-19T12:54:19;94283.09;;;15.20;74.49
61128;BME280;47013;42.664;23.242;2023-05-19T12:56:49;94282.41;;;15.32;75.39
61128;BME280;47013;42.664;23.242;2023-05-19T12:59:23;94274.31;;;15.45;74.15
61128;BME280;47013;42.664;23.242;2023-05-19T13:01:58;94274.91;;;15.52;71.02
61128;BME280;47013;42.664;23.242;2023-05-19T13:04:24;94274.38;;;15.74;70.41
61128;BME280;47013;42.664;23.242;2023-05-19T13:06:50;94270.72;;;15.80;68.64
61128;BME280;47013;42.664;23.242;2023-05-19T13:09:20;94271.19;;;15.91;69.43
61128;BME280;47013;42.664;23.242;2023-05-19T13:11:45;94266.28;;;15.99;69.18
61128;BME280;47013;42.664;23.242;2023-05-19T13:14:16;94260.03;;;16.15;71.42